KCAR/CAR METAR and TAF weather

Enter ICAO airport designator
Station Type Date Time Source
KCAR METAR 2020/01/27 13:54 UTC NOAA

KCAR 271354Z AUTO 27004KT 1SM -SN BR VV018 M02/M03 A2939 RMK AO2 SLP962 P0001 T10171033


Station Type Date Time Source
KCAR Decoded METAR 2020/01/27 13:54 UTC NOAA

CARIBOU MUNICIPAL AIRPORT, ME, United States (KCAR) 46-52N 68-01W 191M
Jan 27, 2020 - 08:54 AM EST / 2020.01.27 1354 UTC
Wind: from the W (270 degrees) at 5 MPH (4 KT):0
Visibility: 1 mile(s):0
Sky conditions: obscured
Weather: light snow; mist
Precipitation last hour: 0.01 inches
Temperature: 28.9 F (-1.7 C)
Windchill: 23 F (-5 C):1
Dew Point: 26.1 F (-3.3 C)
Relative Humidity: 88%
Pressure (altimeter): 29.39 in. Hg (995 hPa)
ob: KCAR 271354Z AUTO 27004KT 1SM -SN BR VV018 M02/M03 A2939 RMK AO2 SLP962 P0001 T10171033
cycle: 14

Station Type Date Time Source
KCAR TAF 2020/01/27 12:58 UTC NOAA

TAF
AMD KCAR 271157Z 2712/2812 30007KT 2SM -SHSN OVC018
FM271500 31008G16KT 6SM -SHSN OVC022
FM280000 32008KT P6SM VCSH OVC028
FM280900 34006KT P6SM BKN035

Example: see airport list